sensor_id;sensor_type;location;lat;lon;timestamp;P1;durP1;ratioP1;P2;durP2;ratioP2
75377;SDS011;63959;51.960;5.886;2023-02-28T00:01:23;14.02;;;5.28;;
75377;SDS011;63959;51.960;5.886;2023-02-28T00:03:55;10.65;;;3.60;;
75377;SDS011;63959;51.960;5.886;2023-02-28T00:06:24;8.18;;;3.40;;
75377;SDS011;63959;51.960;5.886;2023-02-28T00:08:53;9.20;;;3.58;;
75377;SDS011;63959;51.960;5.886;2023-02-28T00:11:21;7.63;;;3.53;;
75377;SDS011;63959;51.960;5.886;2023-02-28T00:13:50;6.72;;;3.58;;
75377;SDS011;63959;51.960;5.886;2023-02-28T00:16:20;7.57;;;2.88;;
75377;SDS011;63959;51.960;5.886;2023-02-28T00:18:50;8.02;;;4.00;;
75377;SDS011;63959;51.960;5.886;2023-02-28T00:21:21;8.02;;;3.88;;
75377;SDS011;63959;51.960;5.886;2023-02-28T00:23:50;7.15;;;3.22;;
75377;SDS011;63959;51.960;5.886;2023-02-28T00:26:19;6.80;;;3.33;;
75377;SDS011;63959;51.960;5.886;2023-02-28T00:28:48;5.65;;;2.67;;
75377;SDS011;63959;51.960;5.886;2023-02-28T00:31:18;8.13;;;2.92;;
75377;SDS011;63959;51.960;5.886;2023-02-28T00:33:47;7.38;;;2.47;;
75377;SDS011;63959;51.960;5.886;2023-02-28T00:36:23;8.18;;;3.38;;
75377;SDS011;63959;51.960;5.886;2023-02-28T00:38:52;7.60;;;2.80;;
75377;SDS011;63959;51.960;5.886;2023-02-28T00:41:21;7.60;;;2.90;;
75377;SDS011;63959;51.960;5.886;2023-02-28T00:43:55;5.10;;;2.75;;
75377;SDS011;63959;51.960;5.886;2023-02-28T00:46:24;5.72;;;2.55;;
75377;SDS011;63959;51.960;5.886;2023-02-28T00:48:53;6.03;;;3.22;;
75377;SDS011;63959;51.960;5.886;2023-02-28T00:51:28;7.13;;;2.95;;
75377;SDS011;63959;51.960;5.886;2023-02-28T00:53:58;9.65;;;3.38;;
75377;SDS011;63959;51.960;5.886;2023-02-28T00:56:27;10.10;;;3.20;;
75377;SDS011;63959;51.960;5.886;2023-02-28T00:58:58;9.27;;;2.78;;
75377;SDS011;63959;51.960;5.886;2023-02-28T01:01:30;8.90;;;3.20;;
75377;SDS011;63959;51.960;5.886;2023-02-28T01:04:13;6.72;;;3.28;;
75377;SDS011;63959;51.960;5.886;2023-02-28T01:06:45;6.97;;;3.03;;
75377;SDS011;63959;51.960;5.886;2023-02-28T01:09:16;6.25;;;2.72;;
75377;SDS011;63959;51.960;5.886;2023-02-28T01:11:48;10.30;;;4.13;;
75377;SDS011;63959;51.960;5.886;2023-02-28T01:14:17;7.13;;;3.03;;
75377;SDS011;63959;51.960;5.886;2023-02-28T01:16:48;7.47;;;3.17;;
75377;SDS011;63959;51.960;5.886;2023-02-28T01:19:17;6.57;;;2.83;;
75377;SDS011;63959;51.960;5.886;2023-02-28T01:21:48;6.03;;;2.78;;
75377;SDS011;63959;51.960;5.886;2023-02-28T01:24:20;9.73;;;3.40;;
75377;SDS011;63959;51.960;5.886;2023-02-28T01:26:49;7.55;;;3.13;;
75377;SDS011;63959;51.960;5.886;2023-02-28T01:29:20;8.15;;;3.35;;
75377;SDS011;63959;51.960;5.886;2023-02-28T01:31:49;6.85;;;3.10;;
75377;SDS011;63959;51.960;5.886;2023-02-28T01:34:20;6.97;;;2.70;;
75377;SDS011;63959;51.960;5.886;2023-02-28T01:36:59;6.88;;;3.08;;
75377;SDS011;63959;51.960;5.886;2023-02-28T01:39:29;6.85;;;2.80;;
75377;SDS011;63959;51.960;5.886;2023-02-28T01:41:58;8.32;;;3.30;;
75377;SDS011;63959;51.960;5.886;2023-02-28T01:47:17;8.23;;;2.80;;
75377;SDS011;63959;51.960;5.886;2023-02-28T01:49:46;6.85;;;3.38;;
75377;SDS011;63959;51.960;5.886;2023-02-28T01:52:30;5.68;;;2.65;;
75377;SDS011;63959;51.960;5.886;2023-02-28T01:55:01;6.57;;;3.40;;
75377;SDS011;63959;51.960;5.886;2023-02-28T01:57:32;6.82;;;2.60;;
75377;SDS011;63959;51.960;5.886;2023-02-28T02:00:09;5.88;;;2.88;;
75377;SDS011;63959;51.960;5.886;2023-02-28T02:05:09;5.93;;;2.58;;
75377;SDS011;63959;51.960;5.886;2023-02-28T02:07:45;5.55;;;1.85;;
75377;SDS011;63959;51.960;5.886;2023-02-28T02:10:20;5.97;;;3.00;;
75377;SDS011;63959;51.960;5.886;2023-02-28T02:12:56;6.13;;;2.97;;
75377;SDS011;63959;51.960;5.886;2023-02-28T02:15:30;5.78;;;2.80;;
75377;SDS011;63959;51.960;5.886;2023-02-28T02:18:02;7.40;;;3.50;;
75377;SDS011;63959;51.960;5.886;2023-02-28T02:20:43;7.20;;;2.95;;
75377;SDS011;63959;51.960;5.886;2023-02-28T02:23:30;6.95;;;2.58;;
75377;SDS011;63959;51.960;5.886;2023-02-28T02:26:05;8.48;;;3.10;;
75377;SDS011;63959;51.960;5.886;2023-02-28T02:28:55;6.05;;;2.92;;
75377;SDS011;63959;51.960;5.886;2023-02-28T02:31:44;6.40;;;3.50;;
75377;SDS011;63959;51.960;5.886;2023-02-28T02:34:32;7.95;;;2.95;;
75377;SDS011;63959;51.960;5.886;2023-02-28T02:37:08;8.35;;;3.08;;
75377;SDS011;63959;51.960;5.886;2023-02-28T02:39:41;5.97;;;3.28;;
75377;SDS011;63959;51.960;5.886;2023-02-28T02:42:16;8.13;;;3.22;;
75377;SDS011;63959;51.960;5.886;2023-02-28T02:44:49;7.95;;;3.92;;
75377;SDS011;63959;51.960;5.886;2023-02-28T02:47:23;8.82;;;3.78;;
75377;SDS011;63959;51.960;5.886;2023-02-28T02:49:59;8.80;;;3.63;;
75377;SDS011;63959;51.960;5.886;2023-02-28T02:52:38;8.10;;;3.83;;
75377;SDS011;63959;51.960;5.886;2023-02-28T02:55:10;7.45;;;3.38;;
75377;SDS011;63959;51.960;5.886;2023-02-28T02:57:51;8.20;;;3.65;;
75377;SDS011;63959;51.960;5.886;2023-02-28T03:00:22;7.35;;;3.38;;
75377;SDS011;63959;51.960;5.886;2023-02-28T03:02:56;6.65;;;3.10;;
75377;SDS011;63959;51.960;5.886;2023-02-28T03:05:32;6.90;;;3.30;;
75377;SDS011;63959;51.960;5.886;2023-02-28T03:08:07;7.30;;;3.10;;
75377;SDS011;63959;51.960;5.886;2023-02-28T03:10:39;6.43;;;3.08;;
75377;SDS011;63959;51.960;5.886;2023-02-28T03:13:13;6.80;;;3.05;;
75377;SDS011;63959;51.960;5.886;2023-02-28T03:15:51;7.72;;;3.17;;
75377;SDS011;63959;51.960;5.886;2023-02-28T03:18:22;6.40;;;3.08;;
75377;SDS011;63959;51.960;5.886;2023-02-28T03:21:03;6.80;;;3.25;;
75377;SDS011;63959;51.960;5.886;2023-02-28T03:23:38;8.13;;;3.78;;
75377;SDS011;63959;51.960;5.886;2023-02-28T03:26:12;7.90;;;3.70;;
75377;SDS011;63959;51.960;5.886;2023-02-28T03:28:43;7.78;;;3.22;;
75377;SDS011;63959;51.960;5.886;2023-02-28T03:33:47;8.50;;;3.63;;
75377;SDS011;63959;51.960;5.886;2023-02-28T03:36:25;6.57;;;2.92;;
75377;SDS011;63959;51.960;5.886;2023-02-28T03:38:58;6.07;;;2.95;;
75377;SDS011;63959;51.960;5.886;2023-02-28T03:41:38;7.18;;;3.30;;
75377;SDS011;63959;51.960;5.886;2023-02-28T03:44:13;5.85;;;2.63;;
75377;SDS011;63959;51.960;5.886;2023-02-28T03:46:53;7.18;;;2.70;;
75377;SDS011;63959;51.960;5.886;2023-02-28T03:49:34;6.13;;;3.17;;
75377;SDS011;63959;51.960;5.886;2023-02-28T03:52:08;7.63;;;3.10;;
75377;SDS011;63959;51.960;5.886;2023-02-28T03:54:45;6.13;;;2.85;;
75377;SDS011;63959;51.960;5.886;2023-02-28T03:59:52;6.88;;;2.50;;
75377;SDS011;63959;51.960;5.886;2023-02-28T04:02:37;7.43;;;2.90;;
75377;SDS011;63959;51.960;5.886;2023-02-28T04:05:09;7.00;;;3.13;;
75377;SDS011;63959;51.960;5.886;2023-02-28T04:07:41;6.75;;;2.70;;
75377;SDS011;63959;51.960;5.886;2023-02-28T04:10:10;5.90;;;2.38;;
75377;SDS011;63959;51.960;5.886;2023-02-28T04:12:43;5.13;;;2.42;;
75377;SDS011;63959;51.960;5.886;2023-02-28T04:15:12;4.72;;;2.10;;
75377;SDS011;63959;51.960;5.886;2023-02-28T04:17:43;5.70;;;2.40;;
75377;SDS011;63959;51.960;5.886;2023-02-28T04:20:24;5.35;;;3.13;;
75377;SDS011;63959;51.960;5.886;2023-02-28T04:22:59;5.93;;;2.55;;
75377;SDS011;63959;51.960;5.886;2023-02-28T04:25:31;6.13;;;3.00;;
75377;SDS011;63959;51.960;5.886;2023-02-28T04:28:00;6.10;;;2.25;;
75377;SDS011;63959;51.960;5.886;2023-02-28T04:30:29;5.07;;;2.30;;
75377;SDS011;63959;51.960;5.886;2023-02-28T04:33:01;5.10;;;2.15;;
75377;SDS011;63959;51.960;5.886;2023-02-28T04:35:34;5.28;;;1.90;;
75377;SDS011;63959;51.960;5.886;2023-02-28T04:38:09;5.28;;;2.13;;
75377;SDS011;63959;51.960;5.886;2023-02-28T04:40:39;7.53;;;2.30;;
75377;SDS011;63959;51.960;5.886;2023-02-28T04:43:08;4.15;;;1.63;;
75377;SDS011;63959;51.960;5.886;2023-02-28T04:45:37;4.75;;;2.03;;
75377;SDS011;63959;51.960;5.886;2023-02-28T04:48:08;5.50;;;2.15;;
75377;SDS011;63959;51.960;5.886;2023-02-28T04:50:39;4.28;;;2.00;;
75377;SDS011;63959;51.960;5.886;2023-02-28T04:53:11;5.13;;;1.65;;
75377;SDS011;63959;51.960;5.886;2023-02-28T04:55:45;4.20;;;1.38;;
75377;SDS011;63959;51.960;5.886;2023-02-28T04:58:14;4.13;;;1.55;;
75377;SDS011;63959;51.960;5.886;2023-02-28T05:00:44;4.90;;;1.60;;
75377;SDS011;63959;51.960;5.886;2023-02-28T05:03:16;5.38;;;1.98;;
75377;SDS011;63959;51.960;5.886;2023-02-28T05:05:52;6.40;;;2.08;;
75377;SDS011;63959;51.960;5.886;2023-02-28T05:08:34;5.47;;;1.63;;
75377;SDS011;63959;51.960;5.886;2023-02-28T05:11:06;4.47;;;1.50;;
75377;SDS011;63959;51.960;5.886;2023-02-28T05:13:35;3.55;;;1.48;;
75377;SDS011;63959;51.960;5.886;2023-02-28T05:16:07;3.80;;;2.00;;
75377;SDS011;63959;51.960;5.886;2023-02-28T05:18:38;5.25;;;1.80;;
75377;SDS011;63959;51.960;5.886;2023-02-28T05:21:27;3.53;;;1.40;;
75377;SDS011;63959;51.960;5.886;2023-02-28T05:23:59;4.93;;;1.63;;
75377;SDS011;63959;51.960;5.886;2023-02-28T05:26:33;3.63;;;1.42;;
75377;SDS011;63959;51.960;5.886;2023-02-28T05:29:07;5.80;;;2.33;;
75377;SDS011;63959;51.960;5.886;2023-02-28T05:31:36;2.75;;;1.27;;
75377;SDS011;63959;51.960;5.886;2023-02-28T05:34:05;5.25;;;2.00;;
75377;SDS011;63959;51.960;5.886;2023-02-28T05:36:42;4.50;;;1.73;;
75377;SDS011;63959;51.960;5.886;2023-02-28T05:39:15;3.70;;;1.58;;
75377;SDS011;63959;51.960;5.886;2023-02-28T05:41:44;3.38;;;1.27;;
75377;SDS011;63959;51.960;5.886;2023-02-28T05:44:16;5.88;;;2.15;;
75377;SDS011;63959;51.960;5.886;2023-02-28T05:46:45;6.53;;;1.70;;
75377;SDS011;63959;51.960;5.886;2023-02-28T05:49:14;3.72;;;1.65;;
75377;SDS011;63959;51.960;5.886;2023-02-28T05:51:43;4.30;;;1.70;;
75377;SDS011;63959;51.960;5.886;2023-02-28T05:54:16;3.40;;;1.58;;
75377;SDS011;63959;51.960;5.886;2023-02-28T05:56:45;4.25;;;1.50;;
75377;SDS011;63959;51.960;5.886;2023-02-28T05:59:18;2.22;;;1.13;;
75377;SDS011;63959;51.960;5.886;2023-02-28T06:01:57;5.82;;;2.10;;
75377;SDS011;63959;51.960;5.886;2023-02-28T06:04:28;4.18;;;1.45;;
75377;SDS011;63959;51.960;5.886;2023-02-28T06:07:02;4.40;;;1.58;;
75377;SDS011;63959;51.960;5.886;2023-02-28T06:09:34;3.75;;;1.70;;
75377;SDS011;63959;51.960;5.886;2023-02-28T06:12:04;5.05;;;1.88;;
75377;SDS011;63959;51.960;5.886;2023-02-28T06:14:35;4.60;;;2.20;;
75377;SDS011;63959;51.960;5.886;2023-02-28T06:17:04;5.07;;;2.47;;
75377;SDS011;63959;51.960;5.886;2023-02-28T06:19:33;5.85;;;2.03;;
75377;SDS011;63959;51.960;5.886;2023-02-28T06:22:09;5.93;;;2.10;;
75377;SDS011;63959;51.960;5.886;2023-02-28T06:24:42;4.85;;;2.10;;
75377;SDS011;63959;51.960;5.886;2023-02-28T06:27:13;3.33;;;1.48;;
75377;SDS011;63959;51.960;5.886;2023-02-28T06:29:42;4.63;;;2.13;;
75377;SDS011;63959;51.960;5.886;2023-02-28T06:32:15;4.78;;;1.48;;
75377;SDS011;63959;51.960;5.886;2023-02-28T06:34:48;4.63;;;1.95;;
75377;SDS011;63959;51.960;5.886;2023-02-28T06:37:17;3.63;;;1.55;;
75377;SDS011;63959;51.960;5.886;2023-02-28T06:39:48;4.88;;;1.85;;
75377;SDS011;63959;51.960;5.886;2023-02-28T06:42:17;6.53;;;2.13;;
75377;SDS011;63959;51.960;5.886;2023-02-28T06:44:46;4.78;;;2.00;;
75377;SDS011;63959;51.960;5.886;2023-02-28T06:47:23;5.05;;;1.80;;
75377;SDS011;63959;51.960;5.886;2023-02-28T06:49:52;4.78;;;1.95;;
75377;SDS011;63959;51.960;5.886;2023-02-28T06:52:27;4.68;;;1.90;;
75377;SDS011;63959;51.960;5.886;2023-02-28T06:55:00;7.95;;;1.73;;
75377;SDS011;63959;51.960;5.886;2023-02-28T06:57:30;5.43;;;2.25;;
75377;SDS011;63959;51.960;5.886;2023-02-28T06:59:59;5.95;;;2.28;;
75377;SDS011;63959;51.960;5.886;2023-02-28T07:02:28;4.80;;;2.05;;
75377;SDS011;63959;51.960;5.886;2023-02-28T07:05:00;6.80;;;2.28;;
75377;SDS011;63959;51.960;5.886;2023-02-28T07:07:32;6.97;;;2.60;;
75377;SDS011;63959;51.960;5.886;2023-02-28T07:10:06;5.80;;;2.20;;
75377;SDS011;63959;51.960;5.886;2023-02-28T07:12:39;7.22;;;2.38;;
75377;SDS011;63959;51.960;5.886;2023-02-28T07:15:09;5.30;;;2.28;;
75377;SDS011;63959;51.960;5.886;2023-02-28T07:17:38;6.00;;;2.30;;
75377;SDS011;63959;51.960;5.886;2023-02-28T07:20:07;4.30;;;2.10;;
75377;SDS011;63959;51.960;5.886;2023-02-28T07:22:40;7.07;;;2.55;;
75377;SDS011;63959;51.960;5.886;2023-02-28T07:25:16;5.68;;;2.17;;
75377;SDS011;63959;51.960;5.886;2023-02-28T07:27:53;5.63;;;2.30;;
75377;SDS011;63959;51.960;5.886;2023-02-28T07:30:22;6.47;;;2.90;;
75377;SDS011;63959;51.960;5.886;2023-02-28T07:32:54;5.38;;;2.10;;
75377;SDS011;63959;51.960;5.886;2023-02-28T07:35:27;5.60;;;2.42;;
75377;SDS011;63959;51.960;5.886;2023-02-28T07:37:56;4.88;;;2.10;;
75377;SDS011;63959;51.960;5.886;2023-02-28T07:40:32;5.93;;;2.30;;
75377;SDS011;63959;51.960;5.886;2023-02-28T07:43:06;7.18;;;2.45;;
75377;SDS011;63959;51.960;5.886;2023-02-28T07:45:35;4.90;;;2.15;;
75377;SDS011;63959;51.960;5.886;2023-02-28T07:48:04;6.35;;;2.45;;
75377;SDS011;63959;51.960;5.886;2023-02-28T07:50:37;5.85;;;2.33;;
75377;SDS011;63959;51.960;5.886;2023-02-28T07:53:08;7.47;;;2.88;;
75377;SDS011;63959;51.960;5.886;2023-02-28T07:55:39;6.68;;;2.40;;
75377;SDS011;63959;51.960;5.886;2023-02-28T07:58:08;8.00;;;2.90;;
75377;SDS011;63959;51.960;5.886;2023-02-28T08:00:40;6.07;;;2.70;;
75377;SDS011;63959;51.960;5.886;2023-02-28T08:03:09;5.60;;;2.88;;
75377;SDS011;63959;51.960;5.886;2023-02-28T08:05:40;5.55;;;2.85;;
75377;SDS011;63959;51.960;5.886;2023-02-28T08:08:12;5.35;;;2.40;;
75377;SDS011;63959;51.960;5.886;2023-02-28T08:10:44;6.32;;;2.42;;
75377;SDS011;63959;51.960;5.886;2023-02-28T08:13:12;6.22;;;2.22;;
75377;SDS011;63959;51.960;5.886;2023-02-28T08:15:41;5.30;;;2.55;;
75377;SDS011;63959;51.960;5.886;2023-02-28T08:18:16;7.05;;;2.65;;
75377;SDS011;63959;51.960;5.886;2023-02-28T08:20:47;6.63;;;3.15;;
75377;SDS011;63959;51.960;5.886;2023-02-28T08:23:18;7.25;;;2.67;;
75377;SDS011;63959;51.960;5.886;2023-02-28T08:25:56;5.50;;;2.45;;
75377;SDS011;63959;51.960;5.886;2023-02-28T08:28:27;6.07;;;2.28;;
75377;SDS011;63959;51.960;5.886;2023-02-28T08:30:56;5.10;;;2.10;;
75377;SDS011;63959;51.960;5.886;2023-02-28T08:33:44;4.50;;;2.15;;
75377;SDS011;63959;51.960;5.886;2023-02-28T08:36:22;6.50;;;2.00;;
75377;SDS011;63959;51.960;5.886;2023-02-28T08:38:52;5.75;;;2.40;;
75377;SDS011;63959;51.960;5.886;2023-02-28T08:41:29;4.65;;;2.05;;
75377;SDS011;63959;51.960;5.886;2023-02-28T08:44:00;4.85;;;2.00;;
75377;SDS011;63959;51.960;5.886;2023-02-28T08:46:29;4.38;;;1.73;;
75377;SDS011;63959;51.960;5.886;2023-02-28T08:49:03;4.55;;;1.95;;
75377;SDS011;63959;51.960;5.886;2023-02-28T08:51:33;3.88;;;1.90;;
75377;SDS011;63959;51.960;5.886;2023-02-28T08:54:01;4.93;;;2.10;;
75377;SDS011;63959;51.960;5.886;2023-02-28T08:56:33;4.72;;;1.80;;
75377;SDS011;63959;51.960;5.886;2023-02-28T08:59:05;4.57;;;1.90;;
75377;SDS011;63959;51.960;5.886;2023-02-28T09:01:34;4.85;;;1.90;;
75377;SDS011;63959;51.960;5.886;2023-02-28T09:04:05;3.60;;;1.80;;
75377;SDS011;63959;51.960;5.886;2023-02-28T09:06:34;3.90;;;1.80;;
75377;SDS011;63959;51.960;5.886;2023-02-28T09:09:04;4.43;;;1.75;;
75377;SDS011;63959;51.960;5.886;2023-02-28T09:11:35;4.53;;;1.70;;
75377;SDS011;63959;51.960;5.886;2023-02-28T09:14:07;5.03;;;2.00;;
75377;SDS011;63959;51.960;5.886;2023-02-28T09:16:36;3.53;;;1.65;;
75377;SDS011;63959;51.960;5.886;2023-02-28T09:19:05;4.15;;;2.00;;
75377;SDS011;63959;51.960;5.886;2023-02-28T09:21:36;5.18;;;2.00;;
75377;SDS011;63959;51.960;5.886;2023-02-28T09:24:08;4.03;;;1.77;;
75377;SDS011;63959;51.960;5.886;2023-02-28T09:26:45;4.40;;;1.40;;
75377;SDS011;63959;51.960;5.886;2023-02-28T09:29:17;4.10;;;1.63;;
75377;SDS011;63959;51.960;5.886;2023-02-28T09:31:46;2.83;;;1.40;;
75377;SDS011;63959;51.960;5.886;2023-02-28T09:34:15;4.03;;;1.60;;
75377;SDS011;63959;51.960;5.886;2023-02-28T09:36:45;3.53;;;1.42;;
75377;SDS011;63959;51.960;5.886;2023-02-28T09:39:22;3.42;;;1.40;;
75377;SDS011;63959;51.960;5.886;2023-02-28T09:41:55;3.53;;;1.40;;
75377;SDS011;63959;51.960;5.886;2023-02-28T09:44:30;3.83;;;1.50;;
75377;SDS011;63959;51.960;5.886;2023-02-28T09:47:05;4.03;;;1.55;;
75377;SDS011;63959;51.960;5.886;2023-02-28T09:49:37;3.53;;;1.48;;
75377;SDS011;63959;51.960;5.886;2023-02-28T09:52:12;4.90;;;1.92;;
75377;SDS011;63959;51.960;5.886;2023-02-28T09:54:42;3.25;;;1.42;;
75377;SDS011;63959;51.960;5.886;2023-02-28T09:57:19;3.97;;;1.77;;
75377;SDS011;63959;51.960;5.886;2023-02-28T10:00:08;6.35;;;1.80;;
75377;SDS011;63959;51.960;5.886;2023-02-28T10:03:00;4.40;;;1.73;;
75377;SDS011;63959;51.960;5.886;2023-02-28T10:05:33;3.50;;;1.80;;
75377;SDS011;63959;51.960;5.886;2023-02-28T10:08:08;3.70;;;1.60;;
75377;SDS011;63959;51.960;5.886;2023-02-28T10:10:42;4.32;;;1.70;;
75377;SDS011;63959;51.960;5.886;2023-02-28T10:13:16;4.97;;;1.65;;
75377;SDS011;63959;51.960;5.886;2023-02-28T10:15:49;3.92;;;1.63;;
75377;SDS011;63959;51.960;5.886;2023-02-28T10:18:23;4.32;;;1.80;;
75377;SDS011;63959;51.960;5.886;2023-02-28T10:20:53;4.65;;;1.73;;
75377;SDS011;63959;51.960;5.886;2023-02-28T10:23:27;2.85;;;1.23;;
75377;SDS011;63959;51.960;5.886;2023-02-28T10:26:00;6.07;;;1.70;;
75377;SDS011;63959;51.960;5.886;2023-02-28T10:28:31;5.13;;;1.85;;
75377;SDS011;63959;51.960;5.886;2023-02-28T10:31:02;4.38;;;1.65;;
75377;SDS011;63959;51.960;5.886;2023-02-28T10:33:38;4.85;;;1.50;;
75377;SDS011;63959;51.960;5.886;2023-02-28T10:36:09;4.55;;;1.73;;
75377;SDS011;63959;51.960;5.886;2023-02-28T10:38:40;3.15;;;1.45;;
75377;SDS011;63959;51.960;5.886;2023-02-28T10:41:14;4.82;;;1.58;;
75377;SDS011;63959;51.960;5.886;2023-02-28T10:43:46;3.42;;;1.70;;
75377;SDS011;63959;51.960;5.886;2023-02-28T10:46:18;3.70;;;1.50;;
75377;SDS011;63959;51.960;5.886;2023-02-28T10:49:00;4.30;;;1.95;;
75377;SDS011;63959;51.960;5.886;2023-02-28T10:51:34;4.95;;;1.60;;
75377;SDS011;63959;51.960;5.886;2023-02-28T10:54:09;4.38;;;1.95;;
75377;SDS011;63959;51.960;5.886;2023-02-28T10:56:44;3.35;;;1.60;;
75377;SDS011;63959;51.960;5.886;2023-02-28T10:59:30;5.13;;;2.05;;
75377;SDS011;63959;51.960;5.886;2023-02-28T11:02:01;5.70;;;1.73;;
75377;SDS011;63959;51.960;5.886;2023-02-28T11:04:35;4.07;;;1.70;;
75377;SDS011;63959;51.960;5.886;2023-02-28T11:07:06;4.47;;;1.73;;
75377;SDS011;63959;51.960;5.886;2023-02-28T11:09:45;4.65;;;1.70;;
75377;SDS011;63959;51.960;5.886;2023-02-28T11:12:20;4.53;;;1.73;;
75377;SDS011;63959;51.960;5.886;2023-02-28T11:14:55;5.60;;;2.00;;
75377;SDS011;63959;51.960;5.886;2023-02-28T11:17:26;3.63;;;1.63;;
75377;SDS011;63959;51.960;5.886;2023-02-28T11:19:55;4.78;;;2.00;;
75377;SDS011;63959;51.960;5.886;2023-02-28T11:22:29;4.47;;;2.08;;
75377;SDS011;63959;51.960;5.886;2023-02-28T11:25:02;3.80;;;1.80;;
75377;SDS011;63959;51.960;5.886;2023-02-28T11:27:44;4.25;;;1.70;;
75377;SDS011;63959;51.960;5.886;2023-02-28T11:30:28;5.07;;;1.90;;
75377;SDS011;63959;51.960;5.886;2023-02-28T11:33:01;3.65;;;1.83;;
75377;SDS011;63959;51.960;5.886;2023-02-28T11:35:34;4.55;;;2.03;;
75377;SDS011;63959;51.960;5.886;2023-02-28T11:38:07;4.63;;;1.98;;
75377;SDS011;63959;51.960;5.886;2023-02-28T11:40:42;5.40;;;1.95;;
75377;SDS011;63959;51.960;5.886;2023-02-28T11:43:17;4.35;;;1.60;;
75377;SDS011;63959;51.960;5.886;2023-02-28T11:45:54;3.15;;;1.60;;
75377;SDS011;63959;51.960;5.886;2023-02-28T11:48:27;4.80;;;1.65;;
75377;SDS011;63959;51.960;5.886;2023-02-28T11:51:00;4.95;;;1.98;;
75377;SDS011;63959;51.960;5.886;2023-02-28T11:53:37;3.88;;;1.98;;
75377;SDS011;63959;51.960;5.886;2023-02-28T11:56:09;4.30;;;1.98;;
75377;SDS011;63959;51.960;5.886;2023-02-28T11:58:42;6.07;;;2.30;;
75377;SDS011;63959;51.960;5.886;2023-02-28T12:01:18;4.28;;;1.90;;
75377;SDS011;63959;51.960;5.886;2023-02-28T12:03:54;3.83;;;1.80;;
75377;SDS011;63959;51.960;5.886;2023-02-28T12:06:28;4.75;;;1.90;;
75377;SDS011;63959;51.960;5.886;2023-02-28T12:09:04;4.07;;;1.88;;
75377;SDS011;63959;51.960;5.886;2023-02-28T12:11:41;4.30;;;2.08;;
75377;SDS011;63959;51.960;5.886;2023-02-28T12:14:18;4.00;;;1.90;;
75377;SDS011;63959;51.960;5.886;2023-02-28T12:16:57;5.30;;;2.05;;
75377;SDS011;63959;51.960;5.886;2023-02-28T12:19:31;3.42;;;1.63;;
75377;SDS011;63959;51.960;5.886;2023-02-28T12:25:13;5.30;;;2.08;;
75377;SDS011;63959;51.960;5.886;2023-02-28T12:27:48;6.28;;;1.90;;
75377;SDS011;63959;51.960;5.886;2023-02-28T12:30:19;4.80;;;1.90;;
75377;SDS011;63959;51.960;5.886;2023-02-28T12:33:04;4.30;;;1.90;;
75377;SDS011;63959;51.960;5.886;2023-02-28T12:35:36;5.07;;;1.98;;
75377;SDS011;63959;51.960;5.886;2023-02-28T12:38:07;3.90;;;1.70;;
75377;SDS011;63959;51.960;5.886;2023-02-28T12:40:44;4.63;;;2.08;;
75377;SDS011;63959;51.960;5.886;2023-02-28T12:43:15;4.85;;;2.13;;
75377;SDS011;63959;51.960;5.886;2023-02-28T12:45:46;4.57;;;2.30;;
75377;SDS011;63959;51.960;5.886;2023-02-28T12:48:20;4.32;;;2.30;;
75377;SDS011;63959;51.960;5.886;2023-02-28T12:50:53;4.13;;;2.10;;
75377;SDS011;63959;51.960;5.886;2023-02-28T12:53:23;5.22;;;2.05;;
75377;SDS011;63959;51.960;5.886;2023-02-28T12:55:56;5.47;;;2.10;;
75377;SDS011;63959;51.960;5.886;2023-02-28T12:58:27;3.80;;;1.92;;
75377;SDS011;63959;51.960;5.886;2023-02-28T13:01:13;9.13;;;2.40;;
75377;SDS011;63959;51.960;5.886;2023-02-28T13:09:26;4.22;;;2.03;;
75377;SDS011;63959;51.960;5.886;2023-02-28T13:11:55;5.03;;;2.30;;
75377;SDS011;63959;51.960;5.886;2023-02-28T13:14:25;5.63;;;1.65;;
75377;SDS011;63959;51.960;5.886;2023-02-28T13:16:57;4.15;;;1.80;;
75377;SDS011;63959;51.960;5.886;2023-02-28T13:19:27;4.35;;;1.88;;
75377;SDS011;63959;51.960;5.886;2023-02-28T13:21:56;3.90;;;1.88;;
75377;SDS011;63959;51.960;5.886;2023-02-28T13:31:03;4.95;;;2.00;;
75377;SDS011;63959;51.960;5.886;2023-02-28T13:35:36;4.93;;;1.90;;
75377;SDS011;63959;51.960;5.886;2023-02-28T13:38:22;4.03;;;1.90;;
75377;SDS011;63959;51.960;5.886;2023-02-28T13:40:51;5.30;;;2.28;;
75377;SDS011;63959;51.960;5.886;2023-02-28T13:43:20;4.55;;;1.80;;
75377;SDS011;63959;51.960;5.886;2023-02-28T13:48:47;4.95;;;1.83;;
75377;SDS011;63959;51.960;5.886;2023-02-28T13:51:33;4.78;;;1.95;;
75377;SDS011;63959;51.960;5.886;2023-02-28T13:54:11;4.28;;;2.03;;
75377;SDS011;63959;51.960;5.886;2023-02-28T13:56:45;4.18;;;1.98;;
75377;SDS011;63959;51.960;5.886;2023-02-28T13:59:19;5.75;;;2.17;;
75377;SDS011;63959;51.960;5.886;2023-02-28T14:04:44;4.72;;;2.00;;
75377;SDS011;63959;51.960;5.886;2023-02-28T14:07:18;4.43;;;1.80;;
75377;SDS011;63959;51.960;5.886;2023-02-28T14:09:57;5.05;;;2.08;;
75377;SDS011;63959;51.960;5.886;2023-02-28T14:15:26;3.72;;;1.67;;
75377;SDS011;63959;51.960;5.886;2023-02-28T14:17:55;3.97;;;1.80;;
75377;SDS011;63959;51.960;5.886;2023-02-28T14:20:31;5.65;;;2.10;;
75377;SDS011;63959;51.960;5.886;2023-02-28T14:23:02;4.72;;;1.83;;
75377;SDS011;63959;51.960;5.886;2023-02-28T14:25:36;4.97;;;2.05;;
75377;SDS011;63959;51.960;5.886;2023-02-28T14:28:12;4.68;;;1.80;;
75377;SDS011;63959;51.960;5.886;2023-02-28T14:30:58;4.78;;;1.90;;
75377;SDS011;63959;51.960;5.886;2023-02-28T14:33:35;5.68;;;1.90;;
75377;SDS011;63959;51.960;5.886;2023-02-28T14:36:16;4.15;;;1.70;;
75377;SDS011;63959;51.960;5.886;2023-02-28T14:38:47;22.58;;;2.63;;
75377;SDS011;63959;51.960;5.886;2023-02-28T14:41:20;4.18;;;1.90;;
75377;SDS011;63959;51.960;5.886;2023-02-28T14:43:50;4.55;;;1.88;;
75377;SDS011;63959;51.960;5.886;2023-02-28T14:46:26;4.63;;;2.00;;
75377;SDS011;63959;51.960;5.886;2023-02-28T14:48:59;4.43;;;1.90;;
75377;SDS011;63959;51.960;5.886;2023-02-28T14:51:31;5.22;;;1.75;;
75377;SDS011;63959;51.960;5.886;2023-02-28T14:54:00;4.63;;;1.90;;
75377;SDS011;63959;51.960;5.886;2023-02-28T14:56:31;4.53;;;1.90;;
75377;SDS011;63959;51.960;5.886;2023-02-28T14:59:01;4.38;;;1.92;;
75377;SDS011;63959;51.960;5.886;2023-02-28T15:01:30;5.22;;;2.10;;
75377;SDS011;63959;51.960;5.886;2023-02-28T15:04:00;4.18;;;1.92;;
75377;SDS011;63959;51.960;5.886;2023-02-28T15:06:32;4.03;;;2.00;;
75377;SDS011;63959;51.960;5.886;2023-02-28T15:11:48;5.72;;;2.10;;
75377;SDS011;63959;51.960;5.886;2023-02-28T15:14:19;4.55;;;1.88;;
75377;SDS011;63959;51.960;5.886;2023-02-28T15:16:49;4.05;;;1.60;;
75377;SDS011;63959;51.960;5.886;2023-02-28T15:21:54;3.67;;;1.73;;
75377;SDS011;63959;51.960;5.886;2023-02-28T15:24:27;4.13;;;1.92;;
75377;SDS011;63959;51.960;5.886;2023-02-28T15:26:59;4.97;;;1.77;;
75377;SDS011;63959;51.960;5.886;2023-02-28T15:29:29;16.23;;;7.30;;
75377;SDS011;63959;51.960;5.886;2023-02-28T15:32:01;5.20;;;1.90;;
75377;SDS011;63959;51.960;5.886;2023-02-28T15:34:33;4.82;;;1.77;;
75377;SDS011;63959;51.960;5.886;2023-02-28T15:39:53;5.03;;;1.90;;
75377;SDS011;63959;51.960;5.886;2023-02-28T15:42:27;5.65;;;2.10;;
75377;SDS011;63959;51.960;5.886;2023-02-28T15:44:58;3.95;;;2.10;;
75377;SDS011;63959;51.960;5.886;2023-02-28T15:47:30;5.10;;;1.90;;
75377;SDS011;63959;51.960;5.886;2023-02-28T15:52:45;4.55;;;2.00;;
75377;SDS011;63959;51.960;5.886;2023-02-28T15:55:40;4.40;;;1.88;;
75377;SDS011;63959;51.960;5.886;2023-02-28T15:58:37;5.00;;;2.65;;
75377;SDS011;63959;51.960;5.886;2023-02-28T16:01:19;5.28;;;2.13;;
75377;SDS011;63959;51.960;5.886;2023-02-28T16:03:53;4.88;;;1.83;;
75377;SDS011;63959;51.960;5.886;2023-02-28T16:06:39;5.75;;;2.10;;
75377;SDS011;63959;51.960;5.886;2023-02-28T16:09:25;5.38;;;2.20;;
75377;SDS011;63959;51.960;5.886;2023-02-28T16:15:37;5.05;;;2.00;;